Data Viewer
| City | State | Eastern Time | Source | Temp | DewPt | RH | BP | 5 Min Precip | Wind Speed | Wind Dir | 5 Min Wind Max | 5 Min Wind Max Dir |
|---|---|---|---|---|---|---|---|---|---|---|---|---|
| Islip | NY | 2026-05-01 17:25 | ASOS | 57 | 37 | 47 | 29.86 | 18 | SSW | |||
| Islip | NY | 2026-05-02 09:15 | ASOS | 52 | 46 | 82 | 29.88 | 5 | WNW | |||
| Islip | NY | 2026-05-02 09:40 | ASOS | 54 | 45 | 71 | 29.88 | 0 | N | |||
| Islip | NY | 2026-05-02 09:36 | ASOS | 53 | 46 | 77 | 29.88 | 3 | W | |||
| Islip | NY | 2026-05-02 09:35 | ASOS | 54 | 46 | 77 | 29.88 | 3 | W | |||
| Islip | NY | 2026-05-02 09:30 | ASOS | 54 | 46 | 77 | 29.88 | 0 | N | |||
| Islip | NY | 2026-05-02 09:25 | ASOS | 52 | 46 | 82 | 29.88 | 3 | NNW | |||
| Islip | NY | 2026-05-02 09:20 | ASOS | 52 | 46 | 82 | 29.89 | 3 | WNW | |||
| Islip | NY | 2026-05-02 09:10 | ASOS | 52 | 46 | 82 | 29.88 | 5 | WSW | |||
| Islip | NY | 2026-05-02 09:50 | ASOS | 54 | 46 | 77 | 29.89 | 0 | N | |||
| Islip | NY | 2026-05-02 09:05 | ASOS | 52 | 46 | 82 | 29.88 | 0 | N | |||
| Islip | NY | 2026-05-02 09:00 | ASOS | 52 | 46 | 82 | 29.88 | 0 | N | |||
| Islip | NY | 2026-05-02 08:56 | ASOS | 51 | 46 | 83 | 29.88 | 5 | W | |||
| Islip | NY | 2026-05-02 08:55 | ASOS | 52 | 46 | 82 | 29.88 | 3 | W | |||
| Islip | NY | 2026-05-02 08:50 | ASOS | 52 | 46 | 82 | 29.88 | |||||
| Islip | NY | 2026-05-02 08:45 | ASOS | 52 | 46 | 82 | 29.88 | |||||
| Islip | NY | 2026-05-02 09:45 | ASOS | 54 | 46 | 77 | 29.88 | 0 | N | |||
| Islip | NY | 2026-05-02 09:56 | ASOS | 53 | 45 | 74 | 29.88 | 0 | N | |||
| Islip | NY | 2026-05-02 08:35 | ASOS | 52 | 46 | 82 | 29.88 | 6 | W | |||
| Islip | NY | 2026-05-02 10:40 | ASOS | 54 | 46 | 77 | 29.88 | 0 | N | |||
| Islip | NY | 2026-05-02 11:05 | ASOS | 54 | 46 | 77 | 29.88 | |||||
| Islip | NY | 2026-05-02 11:00 | ASOS | 54 | 45 | 71 | 29.88 | 0 | N | |||
| Islip | NY | 2026-05-02 10:56 | ASOS | 54 | 46 | 75 | 29.88 | 0 | N | |||
| Islip | NY | 2026-05-02 10:55 | ASOS | 54 | 46 | 77 | 29.88 | 3 | W | |||
| Islip | NY | 2026-05-02 10:50 | ASOS | 54 | 45 | 71 | 29.88 | 0 | N | |||
| Islip | NY | 2026-05-02 10:45 | ASOS | 54 | 45 | 71 | 29.88 | 0 | N | |||
| Islip | NY | 2026-05-02 10:35 | ASOS | 54 | 46 | 77 | 29.88 | |||||
| Islip | NY | 2026-05-02 10:00 | ASOS | 54 | 46 | 77 | 29.88 | 0 | N | |||
| Islip | NY | 2026-05-02 10:30 | ASOS | 54 | 45 | 71 | 29.87 | |||||
| Islip | NY | 2026-05-02 10:25 | ASOS | 54 | 46 | 77 | 29.87 | |||||
| Islip | NY | 2026-05-02 10:20 | ASOS | 54 | 46 | 77 | 29.88 | 3 | N | |||
| Islip | NY | 2026-05-02 10:15 | ASOS | 54 | 46 | 77 | 29.88 | 3 | NNW | |||
| Islip | NY | 2026-05-02 10:10 | ASOS | 54 | 46 | 77 | 29.88 | 0 | N | |||
| Islip | NY | 2026-05-02 10:05 | ASOS | 54 | 45 | 71 | 29.88 | 0 | N | |||
| Islip | NY | 2026-05-02 08:40 | ASOS | 52 | 46 | 82 | 29.88 | |||||
| Islip | NY | 2026-05-02 08:30 | ASOS | 52 | 46 | 82 | 29.88 | 6 | W | |||
| Islip | NY | 2026-05-02 11:15 | ASOS | 54 | 45 | 71 | 29.88 | 0 | N | |||
| Islip | NY | 2026-05-02 06:20 | ASOS | 50 | 46 | 87 | 29.88 | 8 | SW | |||
| Islip | NY | 2026-05-02 06:50 | ASOS | 52 | 46 | 82 | 29.88 | 8 | WSW | |||
| Islip | NY | 2026-05-02 06:45 | ASOS | 52 | 46 | 82 | 29.88 | 8 | WSW | |||
| Islip | NY | 2026-05-02 06:40 | ASOS | 52 | 46 | 82 | 29.88 | 8 | SW | |||
| Islip | NY | 2026-05-02 06:35 | ASOS | 52 | 46 | 82 | 29.88 | 8 | SW | |||
| Islip | NY | 2026-05-02 06:30 | ASOS | 52 | 46 | 82 | 29.88 | 8 | SW | |||
| Islip | NY | 2026-05-02 06:25 | ASOS | 52 | 46 | 82 | 29.87 | 9 | SW | |||
| Islip | NY | 2026-05-02 06:15 | ASOS | 52 | 46 | 82 | 29.87 | 8 | SW | |||
| Islip | NY | 2026-05-02 07:00 | ASOS | 52 | 46 | 82 | 29.89 | 9 | WSW | |||
| Islip | NY | 2026-05-02 06:05 | ASOS | 52 | 46 | 82 | 29.87 | 9 | SW | |||
| Islip | NY | 2026-05-02 06:00 | ASOS | 52 | 46 | 82 | 29.87 | 9 | SSW | |||
| Islip | NY | 2026-05-02 05:56 | ASOS | 51 | 46 | 83 | 29.87 | 8 | SSW | |||
| Islip | NY | 2026-05-02 05:55 | ASOS | 52 | 46 | 82 | 29.87 | 9 | SSW | |||
| Islip | NY | 2026-05-02 05:50 | ASOS | 52 | 46 | 82 | 29.87 | 9 | SSW | |||
| Islip | NY | 2026-05-02 05:45 | ASOS | 52 | 46 | 82 | 29.87 | 10 | SSW | |||
| Islip | NY | 2026-05-02 06:56 | ASOS | 51 | 46 | 83 | 29.89 | 10 | WSW | |||
| Islip | NY | 2026-05-02 07:05 | ASOS | 52 | 46 | 82 | 29.88 | 8 | WSW | |||
| Islip | NY | 2026-05-02 08:25 | ASOS | 52 | 46 | 82 | 29.88 | 6 | W | |||
| Islip | NY | 2026-05-02 07:55 | ASOS | 52 | 46 | 82 | 29.88 | 0 | N | |||
| Islip | NY | 2026-05-02 08:20 | ASOS | 52 | 46 | 82 | 29.88 | 3 | SW | |||
| Islip | NY | 2026-05-02 08:15 | ASOS | 52 | 46 | 82 | 29.88 | 0 | N | |||
| Islip | NY | 2026-05-02 08:10 | ASOS | 52 | 46 | 82 | 29.88 | 0 | N | |||
| Islip | NY | 2026-05-02 08:05 | ASOS | 52 | 46 | 82 | 29.88 | 3 | WSW | |||
| Islip | NY | 2026-05-02 08:00 | ASOS | 52 | 46 | 82 | 29.88 | 3 | SW | |||
| Islip | NY | 2026-05-02 07:56 | ASOS | 51 | 46 | 83 | 29.88 | 0 | N | |||
| Islip | NY | 2026-05-02 07:50 | ASOS | 52 | 46 | 82 | 29.87 | 0 | N | |||
| Islip | NY | 2026-05-02 07:10 | ASOS | 52 | 46 | 82 | 29.88 | 5 | W | |||
| Islip | NY | 2026-05-02 07:45 | ASOS | 52 | 46 | 82 | 29.87 | 0 | N | |||
| Islip | NY | 2026-05-02 07:40 | ASOS | 52 | 46 | 82 | 29.87 | 3 | SSE | |||
| Islip | NY | 2026-05-02 07:35 | ASOS | 52 | 46 | 82 | 29.88 | 0 | N | |||
| Islip | NY | 2026-05-02 07:30 | ASOS | 52 | 46 | 82 | 29.88 | 0 | N | |||
| Islip | NY | 2026-05-02 07:25 | ASOS | 52 | 46 | 82 | 29.88 | |||||
| Islip | NY | 2026-05-02 07:20 | ASOS | 52 | 46 | 82 | 29.88 | 3 | W | |||
| Islip | NY | 2026-05-02 07:15 | ASOS | 52 | 46 | 82 | 29.88 | 3 | W | |||
| Islip | NY | 2026-05-02 11:10 | ASOS | 54 | 45 | 71 | 29.88 | |||||
| Islip | NY | 2026-05-02 11:20 | ASOS | 54 | 45 | 71 | 29.88 | 0 | N | |||
| Islip | NY | 2026-05-02 05:35 | ASOS | 52 | 46 | 82 | 29.87 | 8 | SW | |||
| Islip | NY | 2026-05-02 15:05 | ASOS | 57 | 43 | 59 | 29.84 | 6 | N | |||
| Islip | NY | 2026-05-02 15:35 | ASOS | 59 | 43 | 55 | 29.83 | 3 | NW | |||
| Islip | NY | 2026-05-02 15:30 | ASOS | 57 | 43 | 59 | 29.83 | 3 | NNW | |||
| Islip | NY | 2026-05-02 15:25 | ASOS | 57 | 43 | 59 | 29.83 | 5 | NNW | |||
| Islip | NY | 2026-05-02 15:20 | ASOS | 57 | 43 | 59 | 29.84 | 6 | WNW | |||
| Islip | NY | 2026-05-02 15:15 | ASOS | 57 | 43 | 59 | 29.84 | 7 | W | |||
| Islip | NY | 2026-05-02 15:10 | ASOS | 57 | 43 | 59 | 29.84 | 6 | NNW | |||
| Islip | NY | 2026-05-02 15:00 | ASOS | 57 | 43 | 59 | 29.84 | 7 | NNW | |||
| Islip | NY | 2026-05-02 15:45 | ASOS | 57 | 43 | 59 | 29.82 | 5 | NW | |||
| Islip | NY | 2026-05-02 14:56 | ASOS | 58 | 43 | 57 | 29.84 | 8 | W | |||
| Islip | NY | 2026-05-02 14:55 | ASOS | 57 | 43 | 59 | 29.84 | 8 | W | |||
| Islip | NY | 2026-05-02 14:50 | ASOS | 59 | 43 | 55 | 29.84 | 10 | WNW | |||
| Islip | NY | 2026-05-02 14:45 | ASOS | 57 | 43 | 59 | 29.84 | 9 | NW | |||
| Islip | NY | 2026-05-02 14:40 | ASOS | 57 | 43 | 59 | 29.84 | 8 | W | |||
| Islip | NY | 2026-05-02 14:35 | ASOS | 57 | 43 | 59 | 29.84 | 7 | WNW | |||
| Islip | NY | 2026-05-02 15:40 | ASOS | 59 | 43 | 55 | 29.83 | 7 | NNW | |||
| Islip | NY | 2026-05-02 15:50 | ASOS | 57 | 43 | 59 | 29.82 | 5 | NNW | |||
| Islip | NY | 2026-05-02 14:25 | ASOS | 57 | 43 | 59 | 29.84 | |||||
| Islip | NY | 2026-05-02 16:40 | ASOS | 55 | 43 | 62 | 29.82 | 12 | NNW | |||
| Islip | NY | 2026-05-02 17:05 | ASOS | 57 | 43 | 59 | 29.82 | 6 | NNE | |||
| Islip | NY | 2026-05-02 17:00 | ASOS | 57 | 43 | 59 | 29.82 | 7 | N | |||
| Islip | NY | 2026-05-02 16:56 | ASOS | 57 | 42 | 57 | 29.81 | 6 | N | |||
| Islip | NY | 2026-05-02 16:55 | ASOS | 57 | 43 | 59 | 29.81 | 7 | N | |||
| Islip | NY | 2026-05-02 16:50 | ASOS | 55 | 43 | 62 | 29.82 | 7 | N | |||
| Islip | NY | 2026-05-02 16:45 | ASOS | 55 | 43 | 62 | 29.82 | 10 | NNW | |||
| Islip | NY | 2026-05-02 16:35 | ASOS | 55 | 43 | 62 | 29.82 | 12 | NW | |||
| Islip | NY | 2026-05-02 15:55 | ASOS | 59 | 43 | 55 | 29.82 | 6 | W | |||
| Islip | NY | 2026-05-02 16:30 | ASOS | 57 | 43 | 59 | 29.81 | 10 | NW | |||
| Islip | NY | 2026-05-02 16:25 | ASOS | 57 | 41 | 55 | 29.81 | 12 | NNW | |||
| Islip | NY | 2026-05-02 16:20 | ASOS | 57 | 43 | 59 | 29.82 | 12 | NNW | |||
| Islip | NY | 2026-05-02 16:15 | ASOS | 55 | 43 | 62 | 29.82 | 14 | NNW | |||
| Islip | NY | 2026-05-02 16:05 | ASOS | 57 | 43 | 59 | 29.82 | 12 | NNW | |||
| Islip | NY | 2026-05-02 16:00 | ASOS | 57 | 43 | 59 | 29.82 | 12 | NNW | |||
| Islip | NY | 2026-05-02 15:56 | ASOS | 58 | 42 | 55 | 29.82 | 6 | W | |||
| Islip | NY | 2026-05-02 14:30 | ASOS | 57 | 43 | 59 | 29.84 | 7 | WNW | |||
| Islip | NY | 2026-05-02 14:20 | ASOS | 57 | 43 | 59 | 29.84 | 0 | N | |||
| Islip | NY | 2026-05-02 11:25 | ASOS | 54 | 45 | 71 | 29.88 | 6 | NNW | |||
| Islip | NY | 2026-05-02 12:00 | ASOS | 54 | 45 | 71 | 29.87 | 6 | N | |||
| Islip | NY | 2026-05-02 12:30 | ASOS | 55 | 43 | 62 | 29.87 | 3 | W | |||
| Islip | NY | 2026-05-02 12:25 | ASOS | 55 | 43 | 62 | 29.86 | 0 | N | |||
| Islip | NY | 2026-05-02 12:20 | ASOS | 55 | 44 | 67 | 29.87 | 6 | NW | |||
| Islip | NY | 2026-05-02 12:15 | ASOS | 55 | 44 | 67 | 29.87 | 3 | N | |||
| Islip | NY | 2026-05-02 12:10 | ASOS | 55 | 44 | 67 | 29.87 | 6 | NNW | |||
| Islip | NY | 2026-05-02 12:05 | ASOS | 55 | 44 | 67 | 29.87 | 3 | NW | |||
| Islip | NY | 2026-05-02 11:56 | ASOS | 54 | 45 | 72 | 29.87 | 5 | NW | |||
| Islip | NY | 2026-05-02 12:40 | ASOS | 55 | 41 | 58 | 29.87 | |||||
| Islip | NY | 2026-05-02 11:55 | ASOS | 54 | 45 | 71 | 29.87 | 5 | NNW | |||
| Islip | NY | 2026-05-02 11:50 | ASOS | 54 | 45 | 71 | 29.87 | 3 | N | |||
| Islip | NY | 2026-05-02 11:45 | ASOS | 54 | 46 | 77 | 29.87 | 6 | NNW | |||
| Islip | NY | 2026-05-02 11:40 | ASOS | 54 | 46 | 77 | 29.88 | 6 | NNW | |||
| Islip | NY | 2026-05-02 11:35 | ASOS | 54 | 46 | 77 | 29.88 | 7 | N | |||
| Islip | NY | 2026-05-02 11:30 | ASOS | 54 | 46 | 77 | 29.88 | 5 | NNW | |||
| Islip | NY | 2026-05-02 12:35 | ASOS | 55 | 43 | 62 | 29.87 | 3 | NNE | |||
| Islip | NY | 2026-05-02 12:45 | ASOS | 55 | 43 | 62 | 29.87 | |||||
| Islip | NY | 2026-05-02 14:15 | ASOS | 57 | 43 | 59 | 29.84 | 5 | N | |||
| Islip | NY | 2026-05-02 13:40 | ASOS | 57 | 43 | 59 | 29.85 | 0 | N | |||
| Islip | NY | 2026-05-02 14:10 | ASOS | 57 | 43 | 59 | 29.84 | 6 | N | |||
| Islip | NY | 2026-05-02 14:05 | ASOS | 59 | 43 | 55 | 29.85 | |||||
| Islip | NY | 2026-05-02 13:56 | ASOS | 57 | 41 | 55 | 29.84 | 0 | N | |||
| Islip | NY | 2026-05-02 13:55 | ASOS | 57 | 43 | 59 | 29.85 | 0 | N | |||
| Islip | NY | 2026-05-02 13:50 | ASOS | 57 | 43 | 59 | 29.85 | 6 | NW | |||
| Islip | NY | 2026-05-02 13:45 | ASOS | 57 | 43 | 59 | 29.85 | 5 | SSW | |||
| Islip | NY | 2026-05-02 13:30 | ASOS | 57 | 43 | 59 | 29.85 | 7 | SW | |||
| Islip | NY | 2026-05-02 12:50 | ASOS | 55 | 43 | 62 | 29.87 | 3 | W | |||
| Islip | NY | 2026-05-02 13:25 | ASOS | 57 | 43 | 59 | 29.85 | 5 | WNW | |||
| Islip | NY | 2026-05-02 13:20 | ASOS | 57 | 43 | 59 | 29.86 | 6 | W | |||
| Islip | NY | 2026-05-02 13:15 | ASOS | 57 | 43 | 59 | 29.86 | 5 | WSW | |||
| Islip | NY | 2026-05-02 13:05 | ASOS | 55 | 43 | 62 | 29.87 | 3 | W | |||
| Islip | NY | 2026-05-02 13:00 | ASOS | 55 | 43 | 62 | 29.87 | 5 | NW | |||
| Islip | NY | 2026-05-02 12:56 | ASOS | 56 | 42 | 60 | 29.87 | 3 | W | |||
| Islip | NY | 2026-05-02 12:55 | ASOS | 55 | 43 | 62 | 29.87 | 5 | W | |||
| Islip | NY | 2026-05-02 05:40 | ASOS | 52 | 46 | 82 | 29.87 | 10 | SSW | |||
| Islip | NY | 2026-05-02 05:30 | ASOS | 52 | 46 | 82 | 29.87 | 9 | SW | |||
| Islip | NY | 2026-05-01 17:30 | ASOS | 55 | 37 | 51 | 29.86 | 17 | SSW | |||
| Islip | NY | 2026-05-01 21:20 | ASOS | 52 | 39 | 62 | 29.90 | 10 | SSW | |||
| Islip | NY | 2026-05-01 21:50 | ASOS | 52 | 41 | 66 | 29.90 | 9 | SW | |||
| Islip | NY | 2026-05-01 21:45 | ASOS | 52 | 41 | 66 | 29.90 | 10 | SSW | |||
| Islip | NY | 2026-05-01 21:40 | ASOS | 52 | 39 | 62 | 29.90 | 12 | SSW | |||
| Islip | NY | 2026-05-01 21:35 | ASOS | 52 | 39 | 62 | 29.90 | 9 | SSW | |||
| Islip | NY | 2026-05-01 21:30 | ASOS | 52 | 39 | 62 | 29.90 | 13 | SSW | |||
| Islip | NY | 2026-05-01 21:25 | ASOS | 52 | 39 | 62 | 29.90 | 13 | SSW | |||
| Islip | NY | 2026-05-01 21:15 | ASOS | 52 | 39 | 62 | 29.89 | 12 | SW | |||
| Islip | NY | 2026-05-01 22:00 | ASOS | 50 | 41 | 71 | 29.92 | 9 | SW | |||
| Islip | NY | 2026-05-01 21:10 | ASOS | 52 | 39 | 62 | 29.89 | 9 | SW | |||
| Islip | NY | 2026-05-01 21:05 | ASOS | 52 | 39 | 62 | 29.89 | 8 | SSW | |||
| Islip | NY | 2026-05-01 21:00 | ASOS | 52 | 39 | 62 | 29.89 | 8 | SSW | |||
| Islip | NY | 2026-05-01 20:56 | ASOS | 51 | 41 | 68 | 29.89 | 7 | SW | |||
| Islip | NY | 2026-05-01 20:55 | ASOS | 52 | 41 | 66 | 29.89 | 6 | SW | |||
| Islip | NY | 2026-05-01 20:50 | ASOS | 52 | 41 | 66 | 29.89 | 8 | SW | |||
| Islip | NY | 2026-05-01 21:56 | ASOS | 51 | 41 | 68 | 29.91 | 9 | SW | |||
| Islip | NY | 2026-05-01 22:05 | ASOS | 50 | 41 | 71 | 29.91 | 9 | SW | |||
| Islip | NY | 2026-05-01 20:40 | ASOS | 52 | 41 | 66 | 29.89 | 8 | SW | |||
| Islip | NY | 2026-05-01 22:50 | ASOS | 50 | 43 | 76 | 29.91 | 12 | SW | |||
| Islip | NY | 2026-05-01 23:25 | ASOS | 50 | 43 | 76 | 29.91 | 12 | SSW | |||
| Islip | NY | 2026-05-01 23:10 | ASOS | 50 | 43 | 76 | 29.91 | 10 | SSW | |||
| Islip | NY | 2026-05-01 23:05 | ASOS | 50 | 43 | 76 | 29.91 | 10 | SW | |||
| Islip | NY | 2026-05-01 23:00 | ASOS | 50 | 43 | 76 | 29.91 | 13 | SW | |||
| Islip | NY | 2026-05-01 22:56 | ASOS | 50 | 42 | 74 | 29.91 | 10 | SW | |||
| Islip | NY | 2026-05-01 22:55 | ASOS | 50 | 43 | 76 | 29.91 | 12 | SW | |||
| Islip | NY | 2026-05-01 22:45 | ASOS | 50 | 43 | 76 | 29.92 | 10 | SW | |||
| Islip | NY | 2026-05-01 22:10 | ASOS | 50 | 41 | 71 | 29.91 | 10 | SSW | |||
| Islip | NY | 2026-05-01 22:40 | ASOS | 50 | 41 | 71 | 29.92 | 10 | SW | |||
| Islip | NY | 2026-05-01 22:35 | ASOS | 50 | 41 | 71 | 29.92 | 13 | SW | |||
| Islip | NY | 2026-05-01 22:30 | ASOS | 50 | 41 | 71 | 29.92 | 12 | SW | |||
| Islip | NY | 2026-05-01 22:25 | ASOS | 52 | 41 | 66 | 29.91 | 10 | SSW | |||
| Islip | NY | 2026-05-01 22:20 | ASOS | 52 | 41 | 66 | 29.91 | 12 | SSW | |||
| Islip | NY | 2026-05-01 22:15 | ASOS | 52 | 41 | 66 | 29.90 | 12 | SSW | |||
| Islip | NY | 2026-05-01 20:45 | ASOS | 52 | 41 | 66 | 29.89 | 8 | SW | |||
| Islip | NY | 2026-05-01 20:35 | ASOS | 52 | 41 | 66 | 29.89 | 7 | SSW | |||
| Islip | NY | 2026-05-01 23:35 | ASOS | 50 | 43 | 76 | 29.90 | 12 | SW | |||
| Islip | NY | 2026-05-01 18:15 | ASOS | 55 | 37 | 51 | 29.87 | 16 | SW | |||
| Islip | NY | 2026-05-01 18:45 | ASOS | 54 | 39 | 58 | 29.87 | 15 | SSW | |||
| Islip | NY | 2026-05-01 18:40 | ASOS | 54 | 39 | 58 | 29.87 | 15 | SSW | |||
| Islip | NY | 2026-05-01 18:35 | ASOS | 54 | 39 | 58 | 29.86 | 15 | SSW | |||
| Islip | NY | 2026-05-01 18:30 | ASOS | 55 | 39 | 54 | 29.86 | 18 | SW | |||
| Islip | NY | 2026-05-01 18:25 | ASOS | 54 | 37 | 54 | 29.86 | 15 | SSW | |||
| Islip | NY | 2026-05-01 18:20 | ASOS | 55 | 39 | 54 | 29.87 | 17 | SW | |||
| Islip | NY | 2026-05-01 18:10 | ASOS | 55 | 37 | 51 | 29.87 | 17 | SSW | |||
| Islip | NY | 2026-05-01 18:55 | ASOS | 54 | 39 | 58 | 29.87 | 15 | SSW | |||
| Islip | NY | 2026-05-01 18:00 | ASOS | 55 | 39 | 54 | 29.86 | 17 | SSW | |||
| Islip | NY | 2026-05-01 17:55 | ASOS | 55 | 37 | 51 | 29.86 | 14 | SSW | |||
| Islip | NY | 2026-05-01 17:50 | ASOS | 55 | 37 | 51 | 29.86 | 14 | SW | |||
| Islip | NY | 2026-05-01 17:45 | ASOS | 55 | 37 | 51 | 29.86 | 18 | SW | |||
| Islip | NY | 2026-05-01 17:40 | ASOS | 55 | 37 | 51 | 29.86 | 17 | SSW | |||
| Islip | NY | 2026-05-01 17:35 | ASOS | 55 | 37 | 51 | 29.86 | 17 | SSW | |||
| Islip | NY | 2026-05-01 18:50 | ASOS | 54 | 39 | 58 | 29.87 | 15 | SSW | |||
| Islip | NY | 2026-05-01 18:56 | ASOS | 53 | 39 | 59 | 29.86 | 16 | SSW | |||
| Islip | NY | 2026-05-01 20:30 | ASOS | 52 | 41 | 66 | 29.89 | 6 | SSW | |||
| Islip | NY | 2026-05-01 19:56 | ASOS | 52 | 41 | 66 | 29.88 | 12 | SW | |||
| Islip | NY | 2026-05-01 20:25 | ASOS | 52 | 41 | 66 | 29.88 | 7 | SSW | |||
| Islip | NY | 2026-05-01 20:20 | ASOS | 52 | 41 | 66 | 29.88 | 8 | SSW | |||
| Islip | NY | 2026-05-01 20:15 | ASOS | 52 | 41 | 66 | 29.88 | 8 | SSW | |||
| Islip | NY | 2026-05-01 20:10 | ASOS | 52 | 41 | 66 | 29.88 | 8 | SSW | |||
| Islip | NY | 2026-05-01 20:05 | ASOS | 52 | 41 | 66 | 29.88 | 9 | SW | |||
| Islip | NY | 2026-05-01 20:00 | ASOS | 52 | 41 | 66 | 29.88 | 12 | SW | |||
| Islip | NY | 2026-05-01 19:50 | ASOS | 52 | 41 | 66 | 29.88 | 13 | SW | |||
| Islip | NY | 2026-05-01 19:00 | ASOS | 54 | 39 | 58 | 29.86 | 14 | SW | |||
| Islip | NY | 2026-05-01 19:45 | ASOS | 52 | 41 | 66 | 29.88 | 12 | SW | |||
| Islip | NY | 2026-05-01 19:40 | ASOS | 52 | 41 | 66 | 29.87 | 12 | SW | |||
| Islip | NY | 2026-05-01 19:35 | ASOS | 52 | 41 | 66 | 29.87 | 13 | SW | |||
| Islip | NY | 2026-05-01 19:30 | ASOS | 52 | 41 | 66 | 29.87 | 14 | SW | |||
| Islip | NY | 2026-05-01 19:25 | ASOS | 52 | 39 | 62 | 29.87 | 14 | SW | |||
| Islip | NY | 2026-05-01 19:20 | ASOS | 52 | 39 | 62 | 29.87 | 10 | SW | |||
| Islip | NY | 2026-05-01 19:05 | ASOS | 54 | 39 | 58 | 29.86 | 13 | SSW | |||
| Islip | NY | 2026-05-01 23:30 | ASOS | 52 | 43 | 71 | 29.89 | 9 | SSW | |||
| Islip | NY | 2026-05-01 23:40 | ASOS | 50 | 43 | 76 | 29.90 | 10 | SW | |||
| Islip | NY | 2026-05-02 05:25 | ASOS | 52 | 46 | 82 | 29.87 | 8 | SW | |||
| Islip | NY | 2026-05-02 03:15 | ASOS | 50 | 45 | 82 | 29.89 | 9 | SW | |||
| Islip | NY | 2026-05-02 03:45 | ASOS | 50 | 45 | 82 | 29.89 | 8 | SW | |||
| Islip | NY | 2026-05-02 03:40 | ASOS | 50 | 45 | 82 | 29.88 | 8 | SSW | |||
| Islip | NY | 2026-05-02 03:35 | ASOS | 50 | 45 | 82 | 29.89 | 8 | SW | |||
| Islip | NY | 2026-05-02 03:30 | ASOS | 50 | 45 | 82 | 29.89 | 8 | SW | |||
| Islip | NY | 2026-05-02 03:25 | ASOS | 50 | 45 | 82 | 29.89 | 8 | SW | |||
| Islip | NY | 2026-05-02 03:20 | ASOS | 50 | 45 | 82 | 29.89 | 9 | SW | |||
| Islip | NY | 2026-05-02 03:10 | ASOS | 50 | 45 | 82 | 29.89 | 10 | SW | |||
| Islip | NY | 2026-05-02 03:56 | ASOS | 50 | 45 | 83 | 29.88 | 10 | SW | |||
| Islip | NY | 2026-05-02 03:05 | ASOS | 50 | 45 | 82 | 29.89 | 8 | SW | |||
| Islip | NY | 2026-05-02 03:00 | ASOS | 50 | 45 | 82 | 29.89 | 12 | SSW | |||
| Islip | NY | 2026-05-02 02:56 | ASOS | 50 | 45 | 83 | 29.89 | 8 | SW | |||
| Islip | NY | 2026-05-02 02:55 | ASOS | 50 | 45 | 82 | 29.89 | 9 | SW | |||
| Islip | NY | 2026-05-02 02:50 | ASOS | 50 | 45 | 82 | 29.89 | 9 | SSW | |||
| Islip | NY | 2026-05-02 02:45 | ASOS | 50 | 45 | 82 | 29.89 | 8 | SSW | |||
| Islip | NY | 2026-05-02 03:50 | ASOS | 50 | 45 | 82 | 29.89 | 10 | SW | |||
| Islip | NY | 2026-05-02 04:00 | ASOS | 50 | 45 | 82 | 29.88 | 9 | SW | |||
| Islip | NY | 2026-05-02 02:35 | ASOS | 50 | 45 | 82 | 29.89 | 8 | SSW | |||
| Islip | NY | 2026-05-02 04:50 | ASOS | 50 | 46 | 87 | 29.89 | 9 | SSW | |||
| Islip | NY | 2026-05-02 05:20 | ASOS | 52 | 46 | 82 | 29.87 | 7 | SSW | |||
| Islip | NY | 2026-05-02 05:15 | ASOS | 52 | 46 | 82 | 29.87 | 9 | SW | |||
| Islip | NY | 2026-05-02 05:10 | ASOS | 52 | 46 | 82 | 29.87 | 8 | SSW | |||
| Islip | NY | 2026-05-02 05:05 | ASOS | 52 | 46 | 82 | 29.87 | 8 | SSW | |||
| Islip | NY | 2026-05-02 04:56 | ASOS | 51 | 46 | 83 | 29.88 | 9 | SSW | |||
| Islip | NY | 2026-05-02 04:55 | ASOS | 52 | 46 | 82 | 29.88 | 10 | SSW | |||
| Islip | NY | 2026-05-02 04:45 | ASOS | 50 | 46 | 87 | 29.88 | 8 | SSW | |||
| Islip | NY | 2026-05-02 04:05 | ASOS | 50 | 45 | 82 | 29.88 | 7 | SW | |||
| Islip | NY | 2026-05-02 04:40 | ASOS | 50 | 46 | 87 | 29.88 | 12 | SSW | |||
| Islip | NY | 2026-05-02 04:35 | ASOS | 50 | 46 | 87 | 29.88 | 9 | SW | |||
| Islip | NY | 2026-05-02 04:30 | ASOS | 50 | 46 | 87 | 29.88 | 7 | SSW | |||
| Islip | NY | 2026-05-02 04:25 | ASOS | 50 | 46 | 87 | 29.88 | 6 | SW | |||
| Islip | NY | 2026-05-02 04:20 | ASOS | 50 | 45 | 82 | 29.88 | 6 | SSW | |||
| Islip | NY | 2026-05-02 04:15 | ASOS | 50 | 45 | 82 | 29.88 | 6 | SW | |||
| Islip | NY | 2026-05-02 04:10 | ASOS | 50 | 45 | 82 | 29.88 | 5 | SW | |||
| Islip | NY | 2026-05-02 02:40 | ASOS | 50 | 45 | 82 | 29.89 | 8 | SSW | |||
| Islip | NY | 2026-05-02 02:30 | ASOS | 50 | 45 | 82 | 29.89 | 9 | SW | |||
| Islip | NY | 2026-05-01 23:45 | ASOS | 50 | 43 | 76 | 29.90 | 12 | SSW | |||
| Islip | NY | 2026-05-02 00:20 | ASOS | 50 | 43 | 76 | 29.90 | 8 | SW | |||
| Islip | NY | 2026-05-02 00:50 | ASOS | 50 | 43 | 76 | 29.90 | 7 | SSW | |||
| Islip | NY | 2026-05-02 00:45 | ASOS | 50 | 43 | 76 | 29.90 | 9 | SSW | |||
| Islip | NY | 2026-05-02 00:40 | ASOS | 50 | 43 | 76 | 29.90 | 9 | SW | |||
| Islip | NY | 2026-05-02 00:35 | ASOS | 50 | 43 | 76 | 29.91 | 9 | SW | |||
| Islip | NY | 2026-05-02 00:30 | ASOS | 50 | 43 | 76 | 29.91 | 9 | SW | |||
| Islip | NY | 2026-05-02 00:25 | ASOS | 50 | 43 | 76 | 29.91 | 12 | SW | |||
| Islip | NY | 2026-05-02 00:15 | ASOS | 50 | 43 | 76 | 29.90 | 13 | SSW | |||
| Islip | NY | 2026-05-02 01:00 | ASOS | 50 | 43 | 76 | 29.90 | 9 | SSW | |||
| Islip | NY | 2026-05-02 00:10 | ASOS | 52 | 43 | 71 | 29.90 | 10 | SSW | |||
| Islip | NY | 2026-05-02 00:05 | ASOS | 50 | 43 | 76 | 29.91 | 12 | SSW | |||
| Islip | NY | 2026-05-02 00:00 | ASOS | 50 | 43 | 76 | 29.91 | 9 | SSW | |||
| Islip | NY | 2026-05-01 23:56 | ASOS | 50 | 43 | 77 | 29.91 | 12 | SW | |||
| Islip | NY | 2026-05-01 23:55 | ASOS | 50 | 43 | 76 | 29.91 | 10 | SW | |||
| Islip | NY | 2026-05-01 23:50 | ASOS | 50 | 43 | 76 | 29.90 | 13 | SW | |||
| Islip | NY | 2026-05-02 00:56 | ASOS | 50 | 43 | 77 | 29.90 | 9 | SSW | |||
| Islip | NY | 2026-05-02 01:05 | ASOS | 50 | 43 | 76 | 29.90 | 9 | SSW | |||
| Islip | NY | 2026-05-02 02:25 | ASOS | 50 | 45 | 82 | 29.90 | 10 | SW | |||
| Islip | NY | 2026-05-02 01:55 | ASOS | 50 | 45 | 82 | 29.90 | 5 | S | |||
| Islip | NY | 2026-05-02 02:20 | ASOS | 50 | 45 | 82 | 29.90 | 9 | SW | |||
| Islip | NY | 2026-05-02 02:15 | ASOS | 50 | 45 | 82 | 29.90 | 10 | SSW | |||
| Islip | NY | 2026-05-02 02:10 | ASOS | 50 | 45 | 82 | 29.90 | 10 | SSW | |||
| Islip | NY | 2026-05-02 02:05 | ASOS | 50 | 45 | 82 | 29.90 | 8 | SSW | |||
| Islip | NY | 2026-05-02 02:00 | ASOS | 50 | 45 | 82 | 29.90 | 7 | S | |||
| Islip | NY | 2026-05-02 01:56 | ASOS | 50 | 44 | 80 | 29.90 | 6 | S | |||
| Islip | NY | 2026-05-02 01:50 | ASOS | 50 | 45 | 82 | 29.90 | 7 | SSW | |||
| Islip | NY | 2026-05-02 01:10 | ASOS | 50 | 43 | 76 | 29.90 | 7 | SSW | |||
| Islip | NY | 2026-05-02 01:45 | ASOS | 50 | 45 | 82 | 29.89 | 7 | SSW | |||
| Islip | NY | 2026-05-02 01:40 | ASOS | 50 | 45 | 82 | 29.89 | 6 | SSW | |||
| Islip | NY | 2026-05-02 01:35 | ASOS | 52 | 43 | 71 | 29.88 | 9 | SW | |||
| Islip | NY | 2026-05-02 01:30 | ASOS | 52 | 45 | 76 | 29.88 | 10 | SSW | |||
| Islip | NY | 2026-05-02 01:25 | ASOS | 52 | 45 | 76 | 29.88 | 8 | SSW | |||
| Islip | NY | 2026-05-02 01:20 | ASOS | 52 | 45 | 76 | 29.89 | 8 | SSW | |||
| Islip | NY | 2026-05-02 01:15 | ASOS | 52 | 45 | 76 | 29.89 | 9 | SSW | |||
| Islip | NY | 2026-05-02 17:10 | ASOS | 57 | 43 | 59 | 29.82 | 6 | NNE |
data collection created in 0.041022777557373 (queried in 0.007776) rendered in: 0.00060009956359863

